Startpagina
METAR-TAF:

METAR-TAF

Vliegvelden :

Houston, Texas, Verenigde Staten

George Bush Intercontinental Airport

breedte: 29-59-33N, lengte: 095-21-50W, hoogte: 29 m

Actueel weer

Dit bericht is 39 minuten geleden gemaakt, om 03:53 UTC
Wind 4 kt uit het zuidzuidwesten
Temperatuur 29°C
Vochtigheid 70%
Druk 1016 hPa
Zicht: 16.1 km
Weinig wolken op 15000 ft
Gebroken wolken op 25000 ft

METAR: KIAH 230353Z 21004KT 10SM FEW150 BKN250 29/23 A2999 RMK AO2 SLP154 T02890228

Tijdstip: 23:32 (04:32 UTC)

Verwachting

Dit bericht is 1 uur en het 22 minuten geleden gemaakt, om 03:10 UTC
Verwachting geldig van 23 om 03 UTC tot 24 om 06 UTC
Wind 4 kt uit variabele richting
Zicht: 10 km
Weinig wolken op 15000 ft
Van 23 om 1800 UTC
Wind 7 kt uit het oostnoordoosten
Zicht: 10 km
Verspreide wolken op 5000 ft
buien in de omgeving
Van 24 om 0000 UTC
Wind 6 kt uit het oostzuidoosten
Zicht: 10 km
Weinig wolken op 5000 ft

TAF: KIAH 230310Z 2303/2406 VRB04KT P6SM FEW150 FM231800 06007KT P6SM VCSH SCT050 FM240000 11006KT P6SM FEW050

Waarnemingen en weersverwachtingen van meer dan 4000 vliegvelden (METAR en TAF).

De beschikbare stations zijn de gele en rode punten op de kaart.

Ga met uw muis naar het station om de naam te zien.

Klik dan om waarnemingen en weersverwachtingen te zien.

kaart wijzigen: klik op de groene knoppen met een zwart kruis om in te zoomen, op de groene knop met een streepje om uit te zoomen of op de groene pijlen voor aangrenzende kaarten.


METAR-TAF: